Time;durP1;ratioP1;P1;durP2;ratioP2;P2;SDS_P1;SDS_P2;PMS_P1;PMS_P2;Temp;Humidity;BMP_temperature;BMP_pressure;BME280_temperature;BME280_humidity;BME280_pressure;Samples;Min_cycle;Max_cycle;Signal;HPM_P1;HPM_P2
2023/12/22 00:02:00;;;;;;;;;;;;;;;20.10;49.60;95335.66;630388;225;65694;-70
2023/12/22 00:04:27;;;;;;;;;;;;;;;20.09;49.80;95335.98;630322;225;65007;-70
2023/12/22 00:06:55;;;;;;;;;;;;;;;20.08;49.71;95324.54;630380;225;62132;-70
2023/12/22 00:09:22;;;;;;;;;;;;;;;20.09;50.21;95326.10;630382;225;63110;-70
2023/12/22 00:11:50;;;;;;;;;;;;;;;20.09;49.51;95319.98;630402;225;65096;-70
2023/12/22 00:14:17;;;;;;;;;;;;;;;20.09;50.14;95326.10;630383;225;62444;-70
2023/12/22 00:16:45;;;;;;;;;;;;;;;20.06;49.87;95317.94;630393;225;64965;-70
2023/12/22 00:19:12;;;;;;;;;;;;;;;20.07;50.11;95314.95;630385;225;62690;-70
2023/12/22 00:21:40;;;;;;;;;;;;;;;20.08;49.71;95315.73;630423;225;62699;-68
2023/12/22 00:24:07;;;;;;;;;;;;;;;20.09;50.18;95319.98;630378;225;62883;-68
2023/12/22 00:26:35;;;;;;;;;;;;;;;20.08;49.89;95319.20;630383;225;62825;-68
2023/12/22 00:29:02;;;;;;;;;;;;;;;20.09;49.93;95320.77;630385;225;62422;-68
2023/12/22 00:31:30;;;;;;;;;;;;;;;20.10;49.84;95311.66;630331;225;64971;-68
2023/12/22 00:33:57;;;;;;;;;;;;;;;20.10;50.25;95305.55;630393;225;64860;-68
2023/12/22 00:36:25;;;;;;;;;;;;;;;20.09;49.96;95307.44;630438;225;64595;-67
2023/12/22 00:38:52;;;;;;;;;;;;;;;20.09;49.49;95299.44;630378;225;64880;-70
2023/12/22 00:41:20;;;;;;;;;;;;;;;20.10;49.54;95293.00;630401;225;62673;-71
2023/12/22 00:43:47;;;;;;;;;;;;;;;20.09;50.01;95299.44;630345;225;62575;-70
2023/12/22 00:46:15;;;;;;;;;;;;;;;20.07;49.68;95284.83;630323;225;65503;-70
2023/12/22 00:48:42;;;;;;;;;;;;;;;20.07;49.61;95264.28;630390;225;65324;-70
2023/12/22 00:51:10;;;;;;;;;;;;;;;20.09;50.14;95272.77;630386;225;64572;-68
2023/12/22 00:53:37;;;;;;;;;;;;;;;20.09;49.71;95263.98;630352;225;65449;-68
2023/12/22 00:56:06;;;;;;;;;;;;;;;20.08;49.69;95244.53;630371;225;64816;-68
2023/12/22 00:58:33;;;;;;;;;;;;;;;20.07;50.20;95248.28;630335;225;64589;-68
2023/12/22 01:01:00;;;;;;;;;;;;;;;20.09;49.89;95245.31;630414;225;63112;-68
2023/12/22 01:03:28;;;;;;;;;;;;;;;20.09;50.06;95232.77;630363;225;62881;-67
2023/12/22 01:05:55;;;;;;;;;;;;;;;20.09;49.91;95239.98;630389;225;62468;-68
2023/12/22 01:08:23;;;;;;;;;;;;;;;20.09;49.63;95239.98;630348;225;62745;-68
2023/12/22 01:10:50;;;;;;;;;;;;;;;20.08;49.84;95220.54;630376;225;62921;-68
2023/12/22 01:13:18;;;;;;;;;;;;;;;20.07;49.94;95210.95;630381;225;62498;-70
2023/12/22 01:15:45;;;;;;;;;;;;;;;20.08;49.68;95207.20;630328;225;65529;-70
2023/12/22 01:18:13;;;;;;;;;;;;;;;20.09;49.45;95213.31;630400;225;64989;-70
2023/12/22 01:20:40;;;;;;;;;;;;;;;20.09;49.85;95202.65;630365;225;64573;-70
2023/12/22 01:23:08;;;;;;;;;;;;;;;20.07;49.56;95205.61;630372;225;65529;-70
2023/12/22 01:25:35;;;;;;;;;;;;;;;20.08;50.80;95196.54;630413;225;65323;-70
2023/12/22 01:28:03;;;;;;;;;;;;;;;20.07;50.03;95184.28;630349;225;64524;-70
2023/12/22 01:30:30;;;;;;;;;;;;;;;20.08;49.94;95177.88;630356;225;65542;-70
2023/12/22 01:32:58;;;;;;;;;;;;;;;20.08;49.96;95174.39;630385;225;65493;-70
2023/12/22 01:35:25;;;;;;;;;;;;;;;20.07;50.01;95173.61;630336;225;64644;-70
2023/12/22 01:37:53;;;;;;;;;;;;;;;20.09;50.11;95186.66;630343;225;65695;-70
2023/12/22 01:40:20;;;;;;;;;;;;;;;20.07;50.25;95176.28;630353;225;62916;-70
2023/12/22 01:42:48;;;;;;;;;;;;;;;20.06;50.13;95184.61;630345;225;62473;-70
2023/12/22 01:45:15;;;;;;;;;;;;;;;20.09;50.01;95184.77;630404;225;65375;-70
2023/12/22 01:47:43;;;;;;;;;;;;;;;20.08;49.64;95166.39;630381;225;64996;-70
2023/12/22 01:50:11;;;;;;;;;;;;;;;20.08;50.46;95171.73;630447;225;64554;-68
2023/12/22 01:52:39;;;;;;;;;;;;;;;20.07;50.32;95157.61;630442;225;65267;-68
2023/12/22 01:55:07;;;;;;;;;;;;;;;20.08;50.73;95159.20;630372;225;62713;-67
2023/12/22 01:57:35;;;;;;;;;;;;;;;20.08;50.57;95163.73;630395;225;62372;-68
2023/12/22 02:00:03;;;;;;;;;;;;;;;20.06;50.50;95150.72;630338;225;65433;-68
2023/12/22 02:02:32;;;;;;;;;;;;;;;20.08;50.31;95151.20;630118;225;42833;-68
2023/12/22 02:05:00;;;;;;;;;;;;;;;20.07;50.54;95144.28;630439;225;62432;-68
2023/12/22 02:07:28;;;;;;;;;;;;;;;20.06;50.07;95140.05;630363;225;64071;-68
2023/12/22 02:09:56;;;;;;;;;;;;;;;20.07;50.42;95151.50;630360;225;65078;-67
2023/12/22 02:12:23;;;;;;;;;;;;;;;20.07;50.30;95143.50;630409;225;64800;-67
2023/12/22 02:14:51;;;;;;;;;;;;;;;20.07;50.40;95143.50;630369;225;65534;-67
2023/12/22 02:17:23;;;;;;;;;;;;;;;20.06;50.56;95140.05;630464;225;65035;-67
2023/12/22 02:19:51;;;;;;;;;;;;;;;20.07;50.74;95140.84;630267;225;62513;-68
2023/12/22 02:22:18;;;;;;;;;;;;;;;20.06;50.40;95140.05;630397;225;62747;-68
2023/12/22 02:24:46;;;;;;;;;;;;;;;20.06;50.31;95126.72;630370;225;62931;-68
2023/12/22 02:27:24;;;;;;;;;;;;;;;20.07;50.87;95120.28;630373;225;63353;-68
2023/12/22 02:29:53;;;;;;;;;;;;;;;20.06;50.40;95124.05;630231;225;63520;-68
2023/12/22 02:32:25;;;;;;;;;;;;;;;20.07;49.79;95124.84;625949;225;63873;-69
2023/12/22 02:34:53;;;;;;;;;;;;;;;20.09;49.91;95111.98;630299;225;62419;-70
2023/12/22 02:37:22;;;;;;;;;;;;;;;20.07;50.00;95109.61;630377;225;65561;-69
2023/12/22 02:39:51;;;;;;;;;;;;;;;20.05;50.49;95111.83;630379;225;62907;-68
2023/12/22 02:42:23;;;;;;;;;;;;;;;20.06;50.63;95100.05;630398;225;64609;-68
2023/12/22 02:44:49;;;;;;;;;;;;;;;20.07;49.86;95104.28;630379;225;65253;-68
2023/12/22 02:47:16;;;;;;;;;;;;;;;20.05;50.23;95100.36;630358;225;65013;-68
2023/12/22 02:49:44;;;;;;;;;;;;;;;20.03;49.64;95103.34;630385;225;64483;-67
2023/12/22 02:52:11;;;;;;;;;;;;;;;20.06;50.38;95102.72;630365;225;65470;-68
2023/12/22 02:54:39;;;;;;;;;;;;;;;20.06;50.44;95101.94;630384;225;64938;-70
2023/12/22 02:57:08;;;;;;;;;;;;;;;20.05;50.56;95111.83;630410;225;62503;-70
2023/12/22 02:59:35;;;;;;;;;;;;;;;20.06;50.58;95109.94;630314;225;65866;-70
2023/12/22 03:02:03;;;;;;;;;;;;;;;20.07;50.11;95100.84;630379;225;65062;-70
2023/12/22 03:04:30;;;;;;;;;;;;;;;20.06;50.37;95101.94;630405;225;64559;-70
2023/12/22 03:06:58;;;;;;;;;;;;;;;20.04;50.66;95094.24;630361;225;65447;-71
2023/12/22 03:09:25;;;;;;;;;;;;;;;20.06;50.24;95094.73;630466;225;64817;-70
2023/12/22 03:11:54;;;;;;;;;;;;;;;20.07;50.28;95090.95;630361;225;64566;-70
2023/12/22 03:14:22;;;;;;;;;;;;;;;20.06;50.20;95092.05;630357;225;65455;-72
2023/12/22 03:16:49;;;;;;;;;;;;;;;20.04;49.87;95091.58;630368;225;66526;-70
2023/12/22 03:19:16;;;;;;;;;;;;;;;20.04;50.37;95088.12;630378;225;64564;-68
2023/12/22 03:21:44;;;;;;;;;;;;;;;20.04;49.57;95088.12;630413;225;62975;-68
2023/12/22 03:24:12;;;;;;;;;;;;;;;20.05;50.40;95095.83;630398;225;65334;-68
2023/12/22 03:26:39;;;;;;;;;;;;;;;20.05;50.43;95087.83;630335;225;64486;-70
2023/12/22 03:29:07;;;;;;;;;;;;;;;20.07;50.49;95093.62;630357;225;65428;-70
2023/12/22 03:31:34;;;;;;;;;;;;;;;20.06;49.89;95092.05;630364;225;64994;-70
2023/12/22 03:34:01;;;;;;;;;;;;;;;20.04;50.20;95104.91;630407;225;62443;-70
2023/12/22 03:36:29;;;;;;;;;;;;;;;20.03;50.16;95086.57;630291;225;62691;-70
2023/12/22 03:38:56;;;;;;;;;;;;;;;20.03;50.44;95084.69;630123;225;62938;-71
2023/12/22 03:41:24;;;;;;;;;;;;;;;20.07;50.88;95090.95;630170;225;62560;-70
2023/12/22 03:43:51;;;;;;;;;;;;;;;20.05;49.82;95090.50;630129;225;65554;-68
2023/12/22 03:46:19;;;;;;;;;;;;;;;20.06;49.78;95089.39;630169;225;65040;-68
2023/12/22 03:48:46;;;;;;;;;;;;;;;20.04;50.21;95080.13;630137;225;64590;-68
2023/12/22 03:51:14;;;;;;;;;;;;;;;20.05;50.83;95087.02;630143;225;65460;-68
2023/12/22 03:53:42;;;;;;;;;;;;;;;20.04;50.09;95083.58;630120;225;62901;-67
2023/12/22 03:56:09;;;;;;;;;;;;;;;20.03;51.11;95075.91;630167;225;62456;-68
2023/12/22 03:58:38;;;;;;;;;;;;;;;20.05;50.49;95085.17;630147;225;62985;-68
2023/12/22 04:01:07;;;;;;;;;;;;;;;20.04;49.99;95077.47;630164;225;65024;-68
2023/12/22 04:03:34;;;;;;;;;;;;;;;20.05;50.85;95074.50;630156;225;64624;-68
2023/12/22 04:06:03;;;;;;;;;;;;;;;20.04;49.77;95083.58;630114;225;65488;-68
2023/12/22 04:08:30;;;;;;;;;;;;;;;20.04;50.41;95080.91;630126;225;65203;-68
2023/12/22 04:10:58;;;;;;;;;;;;;;;20.05;50.16;95068.36;630159;225;65364;-68
2023/12/22 04:13:25;;;;;;;;;;;;;;;20.04;50.50;95070.25;630103;225;64092;-68
2023/12/22 04:15:53;;;;;;;;;;;;;;;20.04;50.08;95067.58;630199;225;65160;-68
2023/12/22 04:18:20;;;;;;;;;;;;;;;20.02;50.25;95059.09;630131;225;65790;-70
2023/12/22 04:20:51;;;;;;;;;;;;;;;20.05;50.37;95081.69;630150;225;65463;-70
2023/12/22 04:23:17;;;;;;;;;;;;;;;20.03;50.06;95066.02;630115;225;64642;-70
2023/12/22 04:25:45;;;;;;;;;;;;;;;20.06;50.74;95078.72;630121;225;62462;-70
2023/12/22 04:28:12;;;;;;;;;;;;;;;20.04;50.14;95072.91;630210;225;63728;-70
2023/12/22 04:30:40;;;;;;;;;;;;;;;20.03;50.24;95066.02;630139;225;63172;-70
2023/12/22 04:33:07;;;;;;;;;;;;;;;20.03;50.00;95065.23;630142;225;64731;-70
2023/12/22 04:35:35;;;;;;;;;;;;;;;20.02;50.86;95069.77;630181;225;65113;-70
2023/12/22 04:38:02;;;;;;;;;;;;;;;20.04;50.32;95066.80;630116;225;65195;-68
2023/12/22 04:40:30;;;;;;;;;;;;;;;20.04;50.54;95072.91;630232;225;64798;-68
2023/12/22 04:42:57;;;;;;;;;;;;;;;20.04;50.77;95066.80;630161;225;65129;-68
2023/12/22 04:45:25;;;;;;;;;;;;;;;20.05;50.37;95079.83;630155;225;65168;-68
2023/12/22 04:47:52;;;;;;;;;;;;;;;20.04;50.57;95078.24;630123;225;64766;-68
2023/12/22 04:50:20;;;;;;;;;;;;;;;20.05;50.37;95079.02;629953;225;65007;-68
2023/12/22 04:52:47;;;;;;;;;;;;;;;20.04;50.35;95083.58;630388;225;65211;-68
2023/12/22 04:55:15;;;;;;;;;;;;;;;20.02;50.32;95075.09;630343;225;64748;-68
2023/12/22 04:57:42;;;;;;;;;;;;;;;20.03;50.22;95081.23;630377;225;65857;-68
2023/12/22 05:00:10;;;;;;;;;;;;;;;20.03;50.31;95075.91;630332;225;65278;-68
2023/12/22 05:02:38;;;;;;;;;;;;;;;20.04;50.35;95072.91;630008;225;64756;-68
2023/12/22 05:05:07;;;;;;;;;;;;;;;20.03;49.81;95082.02;630160;225;65403;-69
2023/12/22 05:07:35;;;;;;;;;;;;;;;20.02;50.24;95069.77;630139;225;63333;-68
2023/12/22 05:10:02;;;;;;;;;;;;;;;20.00;49.77;95074.64;630137;225;64519;-68
2023/12/22 05:12:30;;;;;;;;;;;;;;;20.02;49.90;95079.65;630056;225;65309;-69
2023/12/22 05:14:58;;;;;;;;;;;;;;;20.02;49.77;95082.31;630095;225;64914;-69
2023/12/22 05:17:25;;;;;;;;;;;;;;;20.04;49.65;95078.24;630202;225;64651;-69
2023/12/22 05:19:53;;;;;;;;;;;;;;;20.04;50.32;95083.58;630117;225;65395;-68
2023/12/22 05:22:20;;;;;;;;;;;;;;;20.02;50.19;95074.31;630197;225;62974;-69
2023/12/22 05:24:48;;;;;;;;;;;;;;;20.02;50.50;95076.98;630096;225;62439;-68
2023/12/22 05:27:16;;;;;;;;;;;;;;;20.04;50.40;95077.47;630128;225;65839;-69
2023/12/22 05:29:43;;;;;;;;;;;;;;;20.05;50.11;95089.69;630242;225;63013;-69
2023/12/22 05:32:11;;;;;;;;;;;;;;;20.04;50.73;95085.47;630085;225;62656;-69
2023/12/22 05:34:38;;;;;;;;;;;;;;;20.02;50.04;95090.31;630112;225;65218;-69
2023/12/22 05:37:06;;;;;;;;;;;;;;;20.01;50.11;95089.53;630161;225;62679;-69
2023/12/22 05:39:33;;;;;;;;;;;;;;;20.04;49.90;95090.80;630177;225;64593;-69
2023/12/22 05:42:01;;;;;;;;;;;;;;;20.03;50.38;95092.68;630124;225;65486;-69
2023/12/22 05:44:30;;;;;;;;;;;;;;;20.04;50.10;95101.46;630159;225;65399;-69
2023/12/22 05:46:57;;;;;;;;;;;;;;;20.02;50.32;95098.31;629318;225;62058;-69
2023/12/22 05:49:25;;;;;;;;;;;;;;;20.00;50.23;95087.97;623010;225;60996;-67
2023/12/22 05:51:53;;;;;;;;;;;;;;;20.04;50.06;95083.58;622945;227;65201;-66
2023/12/22 05:54:20;;;;;;;;;;;;;;;20.02;50.32;95080.43;622830;226;64603;-66
2023/12/22 05:56:51;;;;;;;;;;;;;;;20.02;50.06;95077.77;623029;227;65513;-69
2023/12/22 05:59:18;;;;;;;;;;;;;;;20.03;50.68;95082.02;622585;227;62817;-69
2023/12/22 06:01:46;;;;;;;;;;;;;;;20.02;49.94;95069.77;622001;228;64560;-67
2023/12/22 06:04:13;;;;;;;;;;;;;;;20.03;50.50;95068.69;622030;228;62955;-67
2023/12/22 06:06:41;;;;;;;;;;;;;;;20.03;50.53;95063.35;622047;228;63044;-67
2023/12/22 06:09:11;;;;;;;;;;;;;;;20.00;50.63;95053.31;622025;228;64730;-67
2023/12/22 06:11:37;;;;;;;;;;;;;;;20.01;50.25;95052.20;621951;228;63509;-70
2023/12/22 06:14:05;;;;;;;;;;;;;;;20.00;50.35;95039.98;621946;228;65161;-69
2023/12/22 06:16:32;;;;;;;;;;;;;;;20.02;49.85;95047.66;622035;228;64892;-69
2023/12/22 06:19:00;;;;;;;;;;;;;;;20.02;50.77;95048.44;622038;228;65460;-69
2023/12/22 06:21:27;;;;;;;;;;;;;;;19.99;49.97;95037.62;622052;227;65188;-70
2023/12/22 06:23:55;;;;;;;;;;;;;;;20.02;50.23;95042.32;622044;228;62600;-70
2023/12/22 06:26:23;;;;;;;;;;;;;;;20.02;50.00;95045.77;621977;228;65482;-69
2023/12/22 06:28:50;;;;;;;;;;;;;;;20.04;50.33;95046.25;622024;228;65641;-69
2023/12/22 06:31:20;;;;;;;;;;;;;;;20.02;50.58;95034.32;622004;228;64583;-69
2023/12/22 06:33:48;;;;;;;;;;;;;;;20.03;50.52;95049.24;622061;228;63244;-70
2023/12/22 06:36:19;;;;;;;;;;;;;;;19.99;50.51;95041.06;622069;226;65205;-70
2023/12/22 06:38:47;;;;;;;;;;;;;;;20.03;50.29;95052.69;621937;228;64654;-70
2023/12/22 06:41:22;;;;;;;;;;;;;;;20.03;50.16;95051.91;621867;228;65713;-69
2023/12/22 06:43:50;;;;;;;;;;;;;;;20.00;50.67;95036.51;621871;228;65063;-70
2023/12/22 06:46:19;;;;;;;;;;;;;;;20.01;50.53;95035.43;622231;228;62079;-70
2023/12/22 06:48:46;;;;;;;;;;;;;;;20.02;50.82;95035.10;622265;228;65462;-70
2023/12/22 06:51:20;;;;;;;;;;;;;;;20.00;50.12;95029.32;622253;228;64943;-71
2023/12/22 06:53:48;;;;;;;;;;;;;;;20.00;50.23;95037.31;622223;228;64672;-70
2023/12/22 06:56:16;;;;;;;;;;;;;;;20.02;50.58;95036.98;622247;228;63018;-70
2023/12/22 06:58:46;;;;;;;;;;;;;;;20.00;50.73;95029.32;622203;228;65535;-71
2023/12/22 07:01:15;;;;;;;;;;;;;;;19.99;49.83;95025.06;622193;228;63425;-70
2023/12/22 07:03:42;;;;;;;;;;;;;;;20.01;50.86;95022.88;622167;228;63047;-70
2023/12/22 07:06:10;;;;;;;;;;;;;;;20.00;50.09;95029.32;622245;228;65110;-71
2023/12/22 07:08:38;;;;;;;;;;;;;;;20.02;50.01;95026.33;622228;228;64523;-70
2023/12/22 07:11:07;;;;;;;;;;;;;;;20.00;49.76;95023.98;622164;226;65495;-70
2023/12/22 07:13:34;;;;;;;;;;;;;;;20.00;50.19;95021.32;621504;228;65025;-71
2023/12/22 07:16:02;;;;;;;;;;;;;;;19.99;47.55;95018.95;622267;228;62450;-72
2023/12/22 07:18:30;;;;;;;;;;;;;;;19.95;47.81;95021.47;622177;228;63693;-70
2023/12/22 07:20:58;;;;;;;;;;;;;;;19.92;49.02;95019.42;626090;226;65061;-73
2023/12/22 07:23:25;;;;;;;;;;;;;;;19.90;49.23;95022.39;626828;226;64622;-73
2023/12/22 07:25:53;;;;;;;;;;;;;;;19.87;49.03;95025.69;626889;226;65747;-72
2023/12/22 07:28:20;;;;;;;;;;;;;;;19.81;48.87;95026.94;626855;226;65065;-69
2023/12/22 07:30:48;;;;;;;;;;;;;;;19.81;48.98;95034.93;626869;226;65467;-74
2023/12/22 07:33:15;;;;;;;;;;;;;;;19.75;48.78;95033.48;626896;226;65563;-72
2023/12/22 07:35:43;;;;;;;;;;;;;;;19.77;48.80;95046.52;626859;226;64934;-73
2023/12/22 07:38:10;;;;;;;;;;;;;;;19.75;49.25;95041.48;626913;226;62419;-72
2023/12/22 07:40:38;;;;;;;;;;;;;;;19.73;48.97;95038.36;626875;226;65468;-73
2023/12/22 07:43:05;;;;;;;;;;;;;;;19.72;49.34;95039.44;626768;226;62988;-73
2023/12/22 07:45:33;;;;;;;;;;;;;;;19.70;49.68;95042.43;626870;226;64261;-73
2023/12/22 07:48:00;;;;;;;;;;;;;;;19.68;49.94;95043.83;626832;226;66419;-73
2023/12/22 07:50:28;;;;;;;;;;;;;;;19.67;50.15;95043.05;626828;226;64958;-73
2023/12/22 07:52:55;;;;;;;;;;;;;;;19.68;50.03;95047.28;626931;226;64576;-73
2023/12/22 07:55:23;;;;;;;;;;;;;;;19.68;50.55;95049.16;626861;226;65360;-73
2023/12/22 07:57:50;;;;;;;;;;;;;;;19.66;51.14;95054.01;626885;226;65012;-71
2023/12/22 08:00:18;;;;;;;;;;;;;;;19.64;50.24;95051.64;623291;226;63162;-71
2023/12/22 08:02:45;;;;;;;;;;;;;;;19.66;50.41;95054.01;622161;228;63992;-70
2023/12/22 08:05:14;;;;;;;;;;;;;;;19.66;50.65;95060.12;622346;228;64741;-69
2023/12/22 08:07:41;;;;;;;;;;;;;;;19.64;50.77;95056.97;622254;228;64822;-72
2023/12/22 08:10:09;;;;;;;;;;;;;;;19.63;50.50;95065.26;622249;228;65287;-71
2023/12/22 08:12:37;;;;;;;;;;;;;;;19.62;48.79;95061.03;622181;228;65519;-73
2023/12/22 08:15:05;;;;;;;;;;;;;;;19.62;49.47;95067.14;622255;228;64683;-70
2023/12/22 08:17:33;;;;;;;;;;;;;;;19.63;49.04;95074.03;622260;228;65613;-71
2023/12/22 08:20:01;;;;;;;;;;;;;;;19.66;49.17;95077.98;622265;228;63090;-72
2023/12/22 08:22:28;;;;;;;;;;;;;;;19.64;50.96;95078.28;622188;228;62329;-72
2023/12/22 08:24:55;;;;;;;;;;;;;;;19.63;48.88;95075.92;622225;228;65326;-69
2023/12/22 08:27:23;;;;;;;;;;;;;;;19.66;49.45;95085.98;622325;228;64766;-71
2023/12/22 08:29:51;;;;;;;;;;;;;;;19.64;49.56;95094.27;622305;228;62546;-72
2023/12/22 08:32:19;;;;;;;;;;;;;;;19.63;47.48;95084.69;622276;228;64792;-72
2023/12/22 08:34:46;;;;;;;;;;;;;;;19.65;49.23;95090.50;622264;228;62699;-72
2023/12/22 08:37:14;;;;;;;;;;;;;;;19.64;48.23;95096.94;622248;228;62435;-73
2023/12/22 08:39:41;;;;;;;;;;;;;;;19.65;46.13;95100.38;622244;228;65479;-72
2023/12/22 08:42:09;;;;;;;;;;;;;;;19.66;48.78;95094.76;622320;228;64885;-73
2023/12/22 08:44:36;;;;;;;;;;;;;;;19.61;51.40;95102.86;622293;228;64744;-74
2023/12/22 08:47:04;;;;;;;;;;;;;;;19.62;51.12;95109.00;622249;228;65073;-71
2023/12/22 08:49:32;;;;;;;;;;;;;;;19.60;50.71;95105.84;622246;228;62607;-74
2023/12/22 08:51:59;;;;;;;;;;;;;;;19.60;51.11;95111.95;622218;228;63333;-73
2023/12/22 08:54:27;;;;;;;;;;;;;;;19.63;51.64;95115.89;622219;228;62953;-73
2023/12/22 08:56:54;;;;;;;;;;;;;;;19.62;51.21;95103.67;622329;228;62987;-73
2023/12/22 08:59:22;;;;;;;;;;;;;;;19.62;50.16;95115.11;622174;226;62444;-74
2023/12/22 09:01:49;;;;;;;;;;;;;;;19.64;50.54;95104.94;622145;228;63099;-72
2023/12/22 09:04:16;;;;;;;;;;;;;;;19.63;49.83;95106.01;622105;228;63827;-74
2023/12/22 09:06:44;;;;;;;;;;;;;;;19.61;51.27;95102.86;622140;228;62514;-74
2023/12/22 09:09:12;;;;;;;;;;;;;;;19.62;46.98;95107.11;622295;228;63189;-73
2023/12/22 09:11:39;;;;;;;;;;;;;;;19.65;45.94;95116.37;622267;228;64328;-73
2023/12/22 09:14:10;;;;;;;;;;;;;;;19.65;47.01;95111.05;622141;228;64536;-75
2023/12/22 09:16:37;;;;;;;;;;;;;;;19.61;49.12;95108.19;622211;228;62998;-74
2023/12/22 09:19:05;;;;;;;;;;;;;;;19.63;47.75;95107.89;622306;228;64770;-76
2023/12/22 09:21:33;;;;;;;;;;;;;;;19.62;49.97;95114.33;622249;228;64679;-75
2023/12/22 09:24:00;;;;;;;;;;;;;;;19.62;44.74;95115.11;622268;228;65371;-75
2023/12/22 09:26:27;;;;;;;;;;;;;;;19.64;46.32;95112.93;622217;228;65671;-75
2023/12/22 09:28:55;;;;;;;;;;;;;;;19.66;44.96;95121.41;622152;228;62495;-75
2023/12/22 09:31:23;;;;;;;;;;;;;;;19.66;46.38;95120.63;622229;228;64151;-75
2023/12/22 09:33:50;;;;;;;;;;;;;;;19.68;48.43;95115.78;622183;228;62994;-73
2023/12/22 09:36:18;;;;;;;;;;;;;;;19.64;49.23;95123.59;622223;228;64616;-72
2023/12/22 09:38:45;;;;;;;;;;;;;;;19.65;47.64;95143.80;622203;228;65495;-74
2023/12/22 09:41:13;;;;;;;;;;;;;;;19.64;48.47;95136.91;622244;228;64980;-71
2023/12/22 09:43:40;;;;;;;;;;;;;;;19.62;48.32;95136.42;622183;228;64595;-69
2023/12/22 09:46:09;;;;;;;;;;;;;;;19.61;47.61;95139.38;622248;228;64787;-68
2023/12/22 09:48:39;;;;;;;;;;;;;;;19.65;45.17;95167.78;622078;228;62933;-69
2023/12/22 09:51:07;;;;;;;;;;;;;;;19.66;45.64;95187.25;621974;228;65663;-69
2023/12/22 09:53:36;;;;;;;;;;;;;;;19.68;49.23;95188.52;622008;228;63330;-72
2023/12/22 09:56:04;;;;;;;;;;;;;;;19.64;45.36;95179.55;622038;228;65096;-70
2023/12/22 09:58:32;;;;;;;;;;;;;;;19.64;46.25;95182.21;621990;227;64529;-70
2023/12/22 10:01:02;;;;;;;;;;;;;;;19.68;44.06;95198.40;622843;227;63125;-69
2023/12/22 10:03:29;;;;;;;;;;;;;;;19.67;43.78;95186.14;622859;227;63206;-68
2023/12/22 10:05:57;;;;;;;;;;;;;;;19.68;46.61;95191.18;622863;227;62794;-69
2023/12/22 10:08:25;;;;;;;;;;;;;;;19.66;47.37;95190.69;622896;227;65206;-69
2023/12/22 10:10:53;;;;;;;;;;;;;;;19.63;49.57;95185.95;622809;227;62919;-69
2023/12/22 10:13:21;;;;;;;;;;;;;;;19.61;47.06;95174.80;622832;227;64586;-67
2023/12/22 10:15:49;;;;;;;;;;;;;;;19.64;46.75;95179.55;622884;227;62918;-70
2023/12/22 10:18:17;;;;;;;;;;;;;;;19.65;44.46;95172.33;622823;227;63156;-68
2023/12/22 10:20:45;;;;;;;;;;;;;;;19.67;48.67;95170.16;622798;227;62414;-68
2023/12/22 10:23:13;;;;;;;;;;;;;;;19.67;44.36;95170.97;622807;227;62005;-69
2023/12/22 10:25:41;;;;;;;;;;;;;;;19.67;43.38;95144.31;622763;227;65199;-68
2023/12/22 10:28:13;;;;;;;;;;;;;;;19.66;44.98;95131.28;622906;227;64735;-70
2023/12/22 10:30:41;;;;;;;;;;;;;;;19.68;44.72;95135.22;622872;227;65596;-69
2023/12/22 10:33:08;;;;;;;;;;;;;;;19.68;44.26;95111.23;622834;227;63568;-69
2023/12/22 10:35:36;;;;;;;;;;;;;;;19.69;44.42;95104.02;622771;227;64730;-68
2023/12/22 10:38:04;;;;;;;;;;;;;;;19.69;43.97;95110.13;622883;227;65452;-67
2023/12/22 10:40:32;;;;;;;;;;;;;;;19.68;44.11;95107.79;622645;227;63235;-68
2023/12/22 10:43:01;;;;;;;;;;;;;;;19.71;43.89;95107.95;622922;227;63356;-68
2023/12/22 10:45:30;;;;;;;;;;;;;;;19.69;44.14;95083.48;623094;227;63091;-68
2023/12/22 10:47:59;;;;;;;;;;;;;;;19.67;44.18;95075.03;623043;227;65048;-68
2023/12/22 10:50:27;;;;;;;;;;;;;;;19.69;43.85;95088.03;623077;227;62399;-68
2023/12/22 10:52:54;;;;;;;;;;;;;;;19.72;44.27;95092.73;623106;227;63099;-68
2023/12/22 10:55:22;;;;;;;;;;;;;;;19.71;44.35;95094.63;622998;227;64931;-68
2023/12/22 10:57:49;;;;;;;;;;;;;;;19.70;44.08;95085.07;623102;227;64671;-69
2023/12/22 11:00:17;;;;;;;;;;;;;;;19.70;43.91;95082.41;623033;227;64949;-68
2023/12/22 11:02:46;;;;;;;;;;;;;;;19.70;43.91;95077.08;623021;227;66135;-68
2023/12/22 11:05:17;;;;;;;;;;;;;;;19.73;43.93;95062.34;623060;227;64735;-68
2023/12/22 11:07:46;;;;;;;;;;;;;;;19.73;44.06;95057.02;623090;227;65744;-68
2023/12/22 11:10:14;;;;;;;;;;;;;;;19.73;44.00;95041.80;623021;227;65141;-67
2023/12/22 11:12:43;;;;;;;;;;;;;;;19.72;43.91;95050.91;623000;227;64622;-67
2023/12/22 11:15:11;;;;;;;;;;;;;;;19.71;44.31;95045.88;623031;227;63084;-67
2023/12/22 11:17:40;;;;;;;;;;;;;;;19.70;44.21;95042.43;623075;227;63052;-68
2023/12/22 11:20:09;;;;;;;;;;;;;;;19.70;44.46;95041.65;623133;227;62460;-68
2023/12/22 11:22:37;;;;;;;;;;;;;;;19.72;44.33;95045.58;623037;227;63429;-69
2023/12/22 11:25:07;;;;;;;;;;;;;;;19.72;44.50;95050.91;623102;227;45271;-68
2023/12/22 11:27:36;;;;;;;;;;;;;;;19.71;44.44;95049.32;623090;227;64645;-67
2023/12/22 11:30:08;;;;;;;;;;;;;;;19.73;44.17;95046.36;623020;227;63057;-68
2023/12/22 11:32:36;;;;;;;;;;;;;;;19.72;44.19;95040.25;623032;227;69278;-68
2023/12/22 11:35:07;;;;;;;;;;;;;;;19.73;44.33;95030.37;623091;227;64799;-68
2023/12/22 11:37:37;;;;;;;;;;;;;;;19.72;44.87;95029.59;622731;227;47150;-67
2023/12/22 11:40:05;;;;;;;;;;;;;;;19.71;45.27;95028.00;623076;227;65258;-68
2023/12/22 11:42:36;;;;;;;;;;;;;;;19.69;44.34;95019.52;623028;227;64747;-68
2023/12/22 11:45:03;;;;;;;;;;;;;;;19.72;44.58;95029.59;622920;227;65455;-68
2023/12/22 11:47:31;;;;;;;;;;;;;;;19.71;44.36;95017.34;623176;227;62701;-68
2023/12/22 11:49:59;;;;;;;;;;;;;;;19.73;44.21;95023.15;623075;227;62533;-69
2023/12/22 11:52:31;;;;;;;;;;;;;;;19.71;44.54;95022.67;623049;227;63311;-69
2023/12/22 11:54:59;;;;;;;;;;;;;;;19.72;45.88;95026.11;623006;227;63313;-69
2023/12/22 11:57:31;;;;;;;;;;;;;;;19.70;45.13;95026.44;623010;227;62607;-69
2023/12/22 11:59:59;;;;;;;;;;;;;;;19.72;44.25;95036.77;622430;227;65510;-65
2023/12/22 12:02:27;;;;;;;;;;;;;;;19.70;45.28;95037.10;622231;228;63958;-67
2023/12/22 12:04:56;;;;;;;;;;;;;;;19.71;45.05;95033.33;622079;228;64422;-66
2023/12/22 12:07:39;;;;;;;;;;;;;;;19.71;44.40;95032.55;622075;228;65496;-69
2023/12/22 12:10:08;;;;;;;;;;;;;;;19.70;44.08;95047.77;622131;228;65061;-69
2023/12/22 12:12:37;;;;;;;;;;;;;;;19.72;44.29;95050.91;621999;228;63533;-68
2023/12/22 12:15:15;;;;;;;;;;;;;;;19.71;44.59;95056.53;622170;228;65191;-68
2023/12/22 12:17:43;;;;;;;;;;;;;;;19.68;45.27;95039.28;622147;228;63017;-69
2023/12/22 12:20:11;;;;;;;;;;;;;;;19.69;45.45;95048.05;622072;228;62590;-68
2023/12/22 12:22:39;;;;;;;;;;;;;;;19.69;45.02;95062.16;622120;228;65860;-68
2023/12/22 12:25:13;;;;;;;;;;;;;;;19.67;46.33;95077.70;622132;228;63779;-68
2023/12/22 12:27:41;;;;;;;;;;;;;;;19.68;46.59;95076.59;622090;228;64807;-65
2023/12/22 12:30:10;;;;;;;;;;;;;;;19.70;45.13;95074.41;622158;228;65425;-66
2023/12/22 12:32:37;;;;;;;;;;;;;;;19.66;46.76;95070.00;622085;228;62764;-67
2023/12/22 12:35:05;;;;;;;;;;;;;;;19.69;47.67;95090.70;622083;228;62613;-66
2023/12/22 12:37:32;;;;;;;;;;;;;;;19.65;47.31;95082.51;622202;228;62931;-67
2023/12/22 12:40:00;;;;;;;;;;;;;;;19.65;45.47;95085.17;622175;228;62881;-67
2023/12/22 12:42:31;;;;;;;;;;;;;;;19.65;45.99;95077.18;622218;228;64800;-66
2023/12/22 12:44:58;;;;;;;;;;;;;;;19.66;46.53;95076.11;622125;228;63158;-67
2023/12/22 12:47:26;;;;;;;;;;;;;;;19.68;45.42;95079.25;622174;228;65130;-66
2023/12/22 12:50:00;;;;;;;;;;;;;;;19.66;45.46;95078.77;622174;228;62593;-67
2023/12/22 12:52:28;;;;;;;;;;;;;;;19.68;46.05;95089.13;622155;228;65201;-67